Time;durP1;ratioP1;P1;durP2;ratioP2;P2;SDS_P1;SDS_P2;PMS_P1;PMS_P2;Temp;Humidity;BMP_temperature;BMP_pressure;BME280_temperature;BME280_humidity;BME280_pressure;Samples;Min_cycle;Max_cycle;Signal;HPM_P1;HPM_P2
2021/06/12 00:01:24;;;;;;;2.78;2.03;;;17.90;99.90;;;17.43;88.14;101884.69;4169223;28;20508;-69
2021/06/12 00:03:25;;;;;;;2.03;1.50;;;17.90;99.90;;;17.37;88.30;101890.72;4169254;28;20029;-69
2021/06/12 00:05:26;;;;;;;2.17;1.40;;;17.80;99.90;;;17.32;88.00;101884.25;4169151;28;20053;-69
2021/06/12 00:07:27;;;;;;;1.80;1.50;;;17.70;99.90;;;17.29;87.70;101890.75;4169003;28;20030;-69
2021/06/12 00:09:28;;;;;;;3.53;1.60;;;17.70;99.90;;;17.29;87.75;101882.75;4168065;28;20401;-69
2021/06/12 00:11:29;;;;;;;2.38;1.67;;;17.70;99.90;;;17.23;87.95;101882.59;4169178;28;20086;-69
2021/06/12 00:13:31;;;;;;;2.50;1.80;;;17.60;99.90;;;17.27;88.03;101884.75;4167856;28;20448;-69
2021/06/12 00:15:33;;;;;;;1.60;1.40;;;17.50;99.90;;;17.16;88.66;101882.44;4167972;28;20048;-69
2021/06/12 00:17:34;;;;;;;4.80;1.88;;;17.60;99.90;;;17.19;88.56;101882.09;4167890;28;20029;-69
2021/06/12 00:19:35;;;;;;;2.35;1.65;;;17.60;99.90;;;17.21;88.37;101890.75;4168983;28;20128;-69
2021/06/12 00:21:37;;;;;;;3.00;1.50;;;17.60;99.90;;;17.06;89.25;101869.31;4168877;28;20022;-69
2021/06/12 00:23:38;;;;;;;3.47;1.70;;;17.50;99.90;;;17.00;89.57;101877.13;4168725;28;20495;-69
2021/06/12 00:25:39;;;;;;;2.63;2.10;;;17.50;99.90;;;16.75;90.36;101870.22;4167827;28;20393;-69
2021/06/12 00:27:41;;;;;;;2.95;1.75;;;17.40;99.90;;;16.84;90.25;101877.19;4167705;28;20030;-69
2021/06/12 00:29:42;;;;;;;3.67;1.60;;;17.40;99.90;;;16.92;89.71;101882.50;4151128;28;20048;-69
2021/06/12 00:31:43;;;;;;;3.17;1.83;;;17.30;99.90;;;16.88;89.63;101889.16;4167672;28;20084;-69
2021/06/12 00:33:44;;;;;;;2.55;1.75;;;17.30;99.90;;;16.78;89.79;101877.88;4167962;28;20048;-69
2021/06/12 00:35:45;;;;;;;2.78;1.73;;;17.30;99.90;;;16.83;89.94;101883.50;4167613;28;20040;-69
2021/06/12 00:37:46;;;;;;;2.80;1.48;;;17.30;99.90;;;16.63;89.80;101863.56;4166045;28;20576;-69
2021/06/12 00:39:47;;;;;;;2.42;1.50;;;17.20;99.90;;;16.64;90.48;101874.03;4167541;28;20096;-69
2021/06/12 00:41:49;;;;;;;2.60;1.98;;;17.10;99.90;;;16.54;90.89;101870.72;4168828;28;20021;-69
2021/06/12 00:43:50;;;;;;;2.45;1.90;;;17.00;99.90;;;16.67;90.29;101870.19;4167430;28;20034;-69
2021/06/12 00:45:51;;;;;;;2.15;1.50;;;17.00;99.90;;;16.68;91.11;101871.88;4167325;28;20483;-69
2021/06/12 00:47:53;;;;;;;4.78;2.10;;;17.00;99.90;;;16.61;90.31;101866.38;4167573;28;20033;-69
2021/06/12 00:49:54;;;;;;;1.98;1.40;;;17.00;99.90;;;16.50;91.32;101872.84;4167508;28;20029;-69
2021/06/12 00:51:55;;;;;;;2.15;1.50;;;16.90;99.90;;;16.52;90.83;101865.53;4168352;28;20071;-69
2021/06/12 00:53:56;;;;;;;2.35;1.73;;;16.90;99.90;;;16.34;91.65;101874.66;4168487;28;20440;-69
2021/06/12 00:55:57;;;;;;;2.92;1.95;;;16.80;99.90;;;16.31;92.01;101875.00;4167503;28;20037;-69
2021/06/12 00:57:58;;;;;;;3.65;1.85;;;16.80;99.90;;;16.29;92.24;101869.84;4167438;28;20028;-69
2021/06/12 01:00:00;;;;;;;3.47;1.80;;;16.80;99.90;;;16.24;91.97;101869.53;4167302;28;20033;-69
2021/06/12 01:02:01;;;;;;;2.40;1.70;;;16.80;99.90;;;16.32;92.31;101864.19;4167355;28;20501;-69
2021/06/12 01:04:02;;;;;;;2.03;1.67;;;16.70;99.90;;;16.27;91.58;101849.72;4168508;28;20060;-69
2021/06/12 01:06:03;;;;;;;3.20;1.88;;;16.70;99.90;;;16.36;91.76;101857.56;4168524;28;20029;-69
2021/06/12 01:08:04;;;;;;;3.10;1.60;;;16.60;99.90;;;16.28;91.62;101859.34;4168119;28;20030;-69
2021/06/12 01:10:08;;;;;;;8.38;2.65;;;16.60;99.90;;;16.34;91.14;101854.19;4167318;28;20030;-69
2021/06/12 01:12:25;;;;;;;3.45;2.10;;;16.60;99.90;;;16.35;91.25;101858.53;4167327;28;20536;-69
2021/06/12 01:14:28;;;;;;;3.10;2.05;;;16.70;99.90;;;16.36;91.65;101859.38;4167344;28;20033;-70
2021/06/12 01:16:51;;;;;;;2.45;1.90;;;16.60;99.90;;;16.31;91.36;101853.69;4168471;28;20025;-69
2021/06/12 01:18:54;;;;;;;3.53;1.73;;;16.60;99.90;;;16.32;91.28;101858.88;4168450;28;20536;-70
2021/06/12 01:21:40;;;;;;;3.35;1.88;;;16.60;99.90;;;16.22;91.75;101849.41;4167041;28;20030;-69
2021/06/12 01:24:19;;;;;;;3.35;1.60;;;16.50;99.90;;;16.17;92.32;101857.03;4164303;28;20029;-70
2021/06/12 01:26:59;;;;;;;2.90;1.95;;;16.50;99.90;;;16.29;91.04;101855.72;4168391;28;20108;-69
2021/06/12 01:29:52;;;;;;;3.05;1.95;;;16.50;99.90;;;16.25;91.24;101855.19;4167135;28;20036;-69
2021/06/12 01:31:55;;;;;;;3.10;1.83;;;16.50;99.90;;;16.15;91.54;101837.75;4167029;28;20061;-69
2021/06/12 01:33:58;;;;;;;3.47;2.00;;;16.50;99.90;;;16.11;92.17;101852.38;4168369;28;20037;-70
2021/06/12 01:36:04;;;;;;;3.70;2.17;;;16.50;99.90;;;16.10;92.81;101854.19;4167045;28;20327;-69
2021/06/12 01:38:09;;;;;;;4.28;1.60;;;16.50;99.90;;;16.15;92.27;101853.72;4137673;28;20058;-69
2021/06/12 01:40:11;;;;;;;2.40;1.83;;;16.40;99.90;;;16.18;92.38;101854.22;4168388;28;20029;-69
2021/06/12 01:42:15;;;;;;;1.70;1.50;;;16.40;99.90;;;16.28;91.77;101848.69;4166954;28;20022;-69
2021/06/12 01:44:18;;;;;;;3.25;1.80;;;16.40;99.90;;;16.24;91.63;101848.22;4167547;28;20067;-69
2021/06/12 01:46:21;;;;;;;2.72;1.90;;;16.40;99.90;;;16.05;92.55;101843.22;4170375;28;20037;-69
2021/06/12 01:48:22;;;;;;;2.13;1.92;;;16.40;99.90;;;16.20;91.45;101854.03;4170351;28;20515;-69
2021/06/12 01:50:25;;;;;;;3.08;1.92;;;16.40;99.90;;;16.21;92.26;101856.53;4171333;28;20033;-69
2021/06/12 01:52:28;;;;;;;3.92;1.73;;;16.40;99.90;;;16.13;91.91;101861.84;4170854;28;20502;-70
2021/06/12 01:54:30;;;;;;;2.53;2.13;;;16.30;99.90;;;16.10;91.86;101861.38;4170167;28;20040;-69
2021/06/12 01:56:31;;;;;;;3.13;2.00;;;16.30;99.90;;;16.02;92.41;101857.69;4170181;28;20428;-69
2021/06/12 01:58:37;;;;;;;1.98;1.70;;;16.30;99.90;;;15.99;92.22;101865.16;4169971;28;20041;-69
2021/06/12 02:00:38;;;;;;;2.50;2.30;;;16.30;99.90;;;15.75;93.37;101851.81;4153598;28;20026;-70
2021/06/12 02:02:42;;;;;;;4.55;2.22;;;16.30;99.90;;;15.70;94.40;101859.44;4169994;28;20025;-71
2021/06/12 02:04:45;;;;;;;;;;;16.30;99.90;;;15.78;94.39;101867.44;4170255;28;20044;-69
2021/06/12 02:06:47;;;;;;;4.80;2.25;;;16.30;99.90;;;15.69;94.83;101868.41;4169652;28;19979;-69
2021/06/12 02:08:50;;;;;;;3.58;2.28;;;16.20;99.90;;;15.74;94.56;101852.81;4171051;28;20476;-69
2021/06/12 02:10:51;;;;;;;4.10;2.40;;;16.20;99.90;;;15.52;95.53;101861.38;4169900;28;20083;-69
2021/06/12 02:12:54;;;;;;;4.15;2.72;;;16.10;99.90;;;15.37;96.16;101856.66;4169805;28;20032;-70
2021/06/12 02:14:58;;;;;;;4.13;2.90;;;16.10;99.90;;;15.41;96.12;101873.94;4169686;28;20084;-69
2021/06/12 02:17:02;;;;;;;3.10;2.50;;;16.00;99.90;;;15.37;96.98;101861.97;4169766;28;20037;-69
2021/06/12 02:19:06;;;;;;;7.30;3.75;;;16.00;99.90;;;15.13;97.83;101864.50;4169725;28;20100;-70
2021/06/12 02:21:07;;;;;;;3.58;3.22;;;15.90;99.90;;;15.01;99.06;101857.78;4169607;28;20069;-70
2021/06/12 02:23:09;;;;;;;5.22;3.25;;;15.90;99.90;;;15.10;98.54;101859.50;4169064;28;20594;-70
2021/06/12 02:25:13;;;;;;;4.93;3.08;;;15.80;99.90;;;15.01;99.38;101857.78;4169404;28;20025;-69
2021/06/12 02:27:18;;;;;;;3.83;3.15;;;15.80;99.90;;;15.04;99.38;101867.28;4169690;28;20116;-69
2021/06/12 02:29:21;;;;;;;4.28;2.90;;;15.70;99.90;;;15.16;99.58;101872.16;4169634;28;20030;-69
2021/06/12 02:31:28;;;;;;;4.20;3.80;;;15.70;99.90;;;14.95;99.89;101869.03;4169496;28;20609;-69
2021/06/12 02:33:31;;;;;;;5.43;3.50;;;15.60;99.90;;;14.98;100.00;101865.25;4169646;28;20034;-69
2021/06/12 02:35:33;;;;;;;4.85;3.85;;;15.70;99.90;;;15.18;99.44;101867.50;4169318;28;20057;-69
2021/06/12 02:37:39;;;;;;;4.32;3.78;;;15.70;99.90;;;15.15;99.63;101867.81;4198237;28;20097;-69
2021/06/12 02:39:40;;;;;;;5.13;3.70;;;15.70;99.90;;;15.14;99.51;101865.34;4170384;28;20034;-69
2021/06/12 02:41:41;;;;;;;4.63;3.38;;;15.80;99.90;;;15.23;100.00;101881.16;4169438;28;20033;-71
2021/06/12 02:43:42;;;;;;;4.10;3.70;;;15.80;99.90;;;15.21;99.05;101869.00;4169327;28;20042;-69
2021/06/12 02:45:42;;;;;;;5.85;4.28;;;15.80;99.90;;;14.97;100.00;101859.09;4170505;28;20128;-69
2021/06/12 02:48:01;;;;;;;5.28;4.22;;;15.80;99.90;;;15.02;100.00;101862.13;4169055;28;20052;-69
2021/06/12 02:50:03;;;;;;;8.10;4.97;;;15.80;99.90;;;15.10;100.00;101870.13;4169272;28;20412;-70
2021/06/12 02:52:15;;;;;;;5.20;4.60;;;15.80;99.90;;;15.14;100.00;101870.66;4168953;28;20085;-69
2021/06/12 02:54:20;;;;;;;6.72;5.13;;;15.80;99.90;;;14.84;100.00;101882.59;4169062;28;20041;-69
2021/06/12 02:56:22;;;;;;;4.90;4.38;;;15.70;99.90;;;14.92;100.00;101874.69;4168294;28;20036;-69
2021/06/12 02:58:26;;;;;;;5.40;4.35;;;15.70;99.90;;;15.10;100.00;101888.75;4169141;28;20112;-69
2021/06/12 03:00:28;;;;;;;7.18;5.40;;;15.70;99.90;;;15.10;100.00;101883.41;4169066;28;20017;-69
2021/06/12 03:02:34;;;;;;;7.10;4.57;;;15.80;99.90;;;14.94;100.00;101878.84;4170471;28;20033;-69
2021/06/12 03:04:37;;;;;;;4.43;3.92;;;15.80;99.90;;;15.11;100.00;101869.16;4168979;28;20087;-70
2021/06/12 03:06:40;;;;;;;5.68;4.72;;;15.80;99.90;;;15.15;100.00;101870.47;4152213;28;20120;-69
2021/06/12 03:08:48;;;;;;;4.25;3.65;;;15.80;99.90;;;15.21;100.00;101877.81;4152385;28;20505;-69
2021/06/12 03:10:52;;;;;;;6.47;4.50;;;15.90;99.90;;;15.30;100.00;101884.84;4152606;28;20080;-69
2021/06/12 03:12:58;;;;;;;;;;;15.90;99.90;;;15.08;100.00;101882.75;4169352;28;20025;-69
2021/06/12 03:15:00;;;;;;;6.30;4.47;;;15.90;99.90;;;15.15;100.00;101889.09;4168684;28;19999;-69
2021/06/12 03:17:01;;;;;;;5.05;3.90;;;15.90;99.90;;;15.24;100.00;101885.47;4168799;28;20148;-69
2021/06/12 03:19:02;;;;;;;4.85;4.22;;;15.90;99.90;;;15.31;100.00;101888.34;4168839;28;20041;-69
2021/06/12 03:21:04;;;;;;;7.90;4.82;;;15.90;99.90;;;15.10;100.00;101882.59;4168628;28;20026;-69
2021/06/12 03:23:06;;;;;;;5.57;4.53;;;15.90;99.90;;;15.18;100.00;101896.75;4168350;28;20558;-69
2021/06/12 03:25:09;;;;;;;5.75;4.75;;;15.90;99.90;;;15.21;100.00;101888.47;4168696;28;20562;-69
2021/06/12 03:27:11;;;;;;;4.97;4.40;;;15.90;99.90;;;15.31;100.00;101889.19;4168712;28;20021;-69
2021/06/12 03:29:12;;;;;;;4.10;3.70;;;15.90;99.90;;;15.43;100.00;101908.34;4168620;28;20053;-69
2021/06/12 03:31:14;;;;;;;6.55;4.90;;;16.00;99.90;;;15.36;100.00;101904.66;4169673;28;20026;-69
2021/06/12 03:33:16;;;;;;;5.15;4.13;;;16.00;99.90;;;15.42;100.00;101898.69;4168585;28;20124;-69
2021/06/12 03:35:18;;;;;;;5.30;3.85;;;16.00;99.90;;;15.45;100.00;101912.50;4168392;28;20032;-69
2021/06/12 03:37:20;;;;;;;4.28;3.70;;;16.00;99.90;;;15.33;100.00;101911.13;4163437;28;20041;-69
2021/06/12 03:39:21;;;;;;;4.95;3.95;;;16.00;99.90;;;15.31;100.00;101915.78;4168383;28;20025;-69
2021/06/12 03:41:24;;;;;;;5.95;4.50;;;16.00;99.90;;;15.15;100.00;101888.25;4169620;28;20033;-69
2021/06/12 03:43:27;;;;;;;4.03;3.55;;;16.00;99.90;;;15.40;100.00;101914.81;4168295;28;20536;-69
2021/06/12 03:45:31;;;;;;;5.80;4.07;;;16.00;99.90;;;15.42;100.00;101912.81;4169501;28;20447;-69
2021/06/12 03:47:33;;;;;;;4.70;4.00;;;16.10;99.90;;;15.62;100.00;101926.72;4168122;28;20040;-69
2021/06/12 03:49:37;;;;;;;6.45;4.40;;;16.10;99.90;;;15.56;100.00;101923.91;4168248;28;20029;-69
2021/06/12 03:51:38;;;;;;;;;;;16.20;99.90;;;15.68;100.00;101915.44;4169525;28;20085;-69
2021/06/12 03:53:49;;;;;;;5.13;4.30;;;16.20;99.90;;;15.72;100.00;101926.63;4168155;28;19944;-69
2021/06/12 03:55:54;;;;;;;6.18;3.92;;;16.30;99.90;;;15.87;99.72;101928.50;4168322;28;20021;-70
2021/06/12 03:57:55;;;;;;;5.72;4.32;;;16.30;99.90;;;15.75;99.95;101923.63;4169359;28;20043;-70
2021/06/12 03:59:56;;;;;;;6.25;5.03;;;16.30;99.90;;;15.70;100.00;101926.78;4167995;28;20025;-70
2021/06/12 04:01:59;;;;;;;6.50;4.90;;;16.40;99.90;;;15.72;100.00;101924.78;4168942;28;20083;-70
2021/06/12 04:04:01;;;;;;;6.55;4.68;;;16.40;99.90;;;15.80;99.79;101929.31;4168106;28;20033;-70
2021/06/12 04:06:01;;;;;;;6.78;4.55;;;16.40;99.90;;;15.82;99.57;101914.84;4169248;28;20029;-70
2021/06/12 04:08:03;;;;;;;5.72;4.47;;;16.30;99.90;;;15.78;99.85;101910.84;4168912;28;20504;-69
2021/06/12 04:10:07;;;;;;;9.38;4.30;;;16.40;99.90;;;15.88;99.77;101937.31;4169089;28;20033;-70
2021/06/12 04:12:08;;;;;;;4.32;3.42;;;16.40;99.90;;;15.92;99.23;101923.53;4168122;28;20052;-69
2021/06/12 04:14:09;;;;;;;4.65;3.53;;;16.40;99.90;;;15.96;98.45;101926.69;4151528;28;20045;-69
2021/06/12 04:16:11;;;;;;;5.78;4.15;;;16.40;99.90;;;15.84;98.84;101928.81;4169186;28;20056;-69
2021/06/12 04:18:15;;;;;;;5.10;3.60;;;16.40;99.90;;;15.93;99.23;101932.34;4168912;28;20033;-69
2021/06/12 04:20:16;;;;;;;5.20;3.70;;;16.40;99.90;;;15.98;98.85;101932.69;4167673;28;20032;-69
2021/06/12 04:22:16;;;;;;;4.38;3.97;;;16.40;99.90;;;15.78;98.78;101931.28;4168795;28;20485;-70
2021/06/12 04:24:17;;;;;;;5.85;4.22;;;16.40;99.90;;;15.77;98.58;101932.31;4169088;28;20104;-69
2021/06/12 04:26:18;;;;;;;5.03;4.53;;;16.40;99.90;;;15.89;98.65;101939.81;4168784;28;20084;-69
2021/06/12 04:28:19;;;;;;;6.00;4.72;;;16.40;99.90;;;15.63;99.38;101943.53;4168940;28;20053;-69
2021/06/12 04:30:21;;;;;;;6.15;4.25;;;16.40;99.90;;;15.52;100.00;101935.84;4167698;28;20033;-69
2021/06/12 04:32:22;;;;;;;6.40;4.75;;;16.40;99.90;;;15.45;100.00;101941.75;4168783;28;20037;-69
2021/06/12 04:34:23;;;;;;;6.03;4.63;;;16.30;99.90;;;15.61;100.00;101945.53;4168684;28;20108;-69
2021/06/12 04:36:24;;;;;;;5.97;4.43;;;16.30;99.90;;;15.57;100.00;101945.00;4154133;28;20168;-69
2021/06/12 04:38:25;;;;;;;5.93;4.55;;;16.30;99.90;;;15.57;100.00;101952.16;4168294;28;20504;-69
2021/06/12 04:40:29;;;;;;;5.68;4.60;;;16.30;99.90;;;15.71;100.00;101948.91;4168659;28;20057;-69
2021/06/12 04:42:30;;;;;;;;;;;16.30;99.90;;;15.40;100.00;101948.56;4169222;28;20428;-69
2021/06/12 04:44:31;;;;;;;6.93;4.60;;;16.30;99.90;;;15.50;100.00;101950.13;4167648;28;19909;-69
2021/06/12 04:46:32;;;;;;;7.60;5.50;;;16.30;99.90;;;15.62;100.00;101944.53;4168813;28;20061;-69
2021/06/12 04:48:33;;;;;;;7.00;5.00;;;16.30;99.90;;;15.55;100.00;101951.47;4167482;28;20040;-69
2021/06/12 04:50:37;;;;;;;7.97;4.00;;;16.30;99.90;;;15.69;100.00;101942.91;4167425;28;20025;-69
2021/06/12 04:52:39;;;;;;;8.20;5.03;;;16.30;99.90;;;15.68;100.00;101951.88;4167186;28;20083;-69
2021/06/12 04:54:40;;;;;;;5.18;4.47;;;16.40;99.90;;;15.83;100.00;101955.59;4167452;28;20033;-69
2021/06/12 04:56:42;;;;;;;9.73;5.00;;;16.40;99.90;;;15.83;100.00;101958.28;4168557;28;20061;-69
2021/06/12 04:58:43;;;;;;;7.28;5.55;;;16.40;99.90;;;15.89;100.00;101958.44;4167195;28;20029;-69
2021/06/12 05:00:44;;;;;;;9.05;5.18;;;16.50;99.90;;;16.02;100.00;101952.66;4168449;28;20522;-69
2021/06/12 05:02:45;;;;;;;7.38;5.40;;;16.50;99.90;;;15.84;100.00;101952.78;4167463;28;20029;-69
2021/06/12 05:04:46;;;;;;;7.45;5.45;;;16.60;99.90;;;15.72;100.00;101943.41;4168599;28;20037;-69
2021/06/12 05:06:46;;;;;;;9.43;5.75;;;16.60;99.90;;;15.92;100.00;101951.94;4166908;28;20022;-69
2021/06/12 05:08:47;;;;;;;9.27;6.78;;;16.50;99.90;;;15.95;100.00;101948.97;4167167;28;20026;-69
2021/06/12 05:10:48;;;;;;;7.53;5.65;;;16.50;99.90;;;15.94;100.00;101948.16;4168513;28;20508;-69
2021/06/12 05:12:49;;;;;;;6.88;5.78;;;16.60;99.90;;;15.95;99.88;101947.16;4168213;28;20424;-69
2021/06/12 05:14:54;;;;;;;9.15;6.60;;;16.60;99.90;;;15.69;100.00;101942.91;4167207;28;20519;-69
2021/06/12 05:16:56;;;;;;;6.22;4.90;;;16.60;99.90;;;15.95;100.00;101947.16;4168180;28;20030;-70
2021/06/12 05:18:57;;;;;;;8.90;5.78;;;16.60;99.90;;;15.93;100.00;101956.28;4168236;28;20033;-70
2021/06/12 05:20:58;;;;;;;7.65;5.63;;;16.60;99.90;;;15.97;100.00;101952.31;4171698;28;20079;-70
2021/06/12 05:22:59;;;;;;;6.82;5.45;;;16.70;99.90;;;15.97;99.69;101963.81;4173322;28;20068;-69
2021/06/12 05:25:00;;;;;;;6.90;6.05;;;16.70;99.90;;;15.89;100.00;101955.78;4171456;28;20044;-70
2021/06/12 05:27:03;;;;;;;8.13;4.97;;;16.70;99.90;;;16.00;100.00;101952.84;4171110;28;20041;-69
2021/06/12 05:29:04;;;;;;;6.30;5.28;;;16.70;99.90;;;16.10;99.40;101958.00;4174901;28;20024;-69
2021/06/12 05:31:05;;;;;;;7.60;5.45;;;16.70;99.90;;;16.03;98.32;101949.84;4177930;28;20021;-69
2021/06/12 05:33:05;;;;;;;5.25;4.75;;;16.80;99.90;;;15.94;99.35;101957.97;4174781;28;20076;-69
2021/06/12 05:35:07;;;;;;;6.30;4.97;;;16.80;99.90;;;15.81;100.00;101957.56;4171179;28;20033;-69
2021/06/12 05:37:10;;;;;;;5.55;4.40;;;16.70;99.90;;;15.95;99.10;101976.44;4169920;28;20022;-70
2021/06/12 05:39:10;;;;;;;5.53;4.53;;;16.70;99.90;;;15.97;100.00;101960.31;4171460;28;20036;-70
2021/06/12 05:41:12;;;;;;;4.82;4.15;;;16.80;99.90;;;16.23;100.00;101979.69;4170059;28;20401;-70
2021/06/12 05:43:13;;;;;;;6.47;4.88;;;16.80;99.90;;;15.96;99.18;101974.59;4171402;28;20021;-70
2021/06/12 05:45:14;;;;;;;6.30;4.18;;;16.80;99.90;;;16.09;99.00;101975.00;4171086;28;20112;-70
2021/06/12 05:47:15;;;;;;;5.50;4.57;;;16.80;99.90;;;15.94;98.74;101966.78;4171162;28;20083;-70
2021/06/12 05:49:17;;;;;;;7.85;4.80;;;16.90;99.90;;;16.18;99.12;101975.84;4170016;28;20014;-69
2021/06/12 05:51:18;;;;;;;5.07;3.97;;;16.90;99.90;;;16.07;98.91;101976.97;4171238;28;20485;-69
2021/06/12 05:53:20;;;;;;;8.38;4.80;;;16.90;99.90;;;15.96;98.96;101969.28;4171119;28;20047;-69
2021/06/12 05:55:22;;;;;;;5.55;4.45;;;16.90;99.90;;;16.09;98.91;101971.50;4168438;28;20033;-69
2021/06/12 05:57:22;;;;;;;5.45;4.45;;;17.00;99.90;;;16.10;98.53;101976.63;4167466;28;20025;-69
2021/06/12 05:59:24;;;;;;;4.82;3.58;;;17.00;99.90;;;15.85;99.89;101969.56;4171001;28;20193;-70
2021/06/12 06:01:25;;;;;;;5.40;3.70;;;17.00;99.90;;;15.99;98.85;101980.44;4171002;28;20026;-70
2021/06/12 06:03:26;;;;;;;4.13;3.47;;;17.00;99.90;;;15.98;99.17;101980.59;4173369;28;20032;-70
2021/06/12 06:05:27;;;;;;;4.43;3.55;;;16.90;99.90;;;16.26;98.85;101979.34;4172162;28;20026;-70
2021/06/12 06:07:28;;;;;;;3.00;2.47;;;16.90;99.90;;;16.28;97.42;101984.50;4170503;28;20026;-70
2021/06/12 06:09:29;;;;;;;2.95;2.65;;;17.00;99.90;;;16.30;97.40;101977.22;4170865;28;20021;-71
2021/06/12 06:11:30;;;;;;;3.92;2.95;;;17.10;99.90;;;16.37;96.64;101976.38;4170871;28;20071;-70
2021/06/12 06:13:39;;;;;;;2.90;2.65;;;17.20;99.90;;;16.28;95.75;101963.19;4170742;28;20036;-69
2021/06/12 06:15:40;;;;;;;3.55;2.90;;;17.20;99.90;;;16.41;95.92;101987.53;4170815;28;20029;-69
2021/06/12 06:17:42;;;;;;;4.43;2.42;;;17.30;99.90;;;16.39;95.96;101984.22;4170450;28;20546;-69
2021/06/12 06:19:43;;;;;;;2.97;2.40;;;17.30;99.90;;;16.48;96.41;101977.91;4170643;28;20037;-69
2021/06/12 06:21:44;;;;;;;4.13;2.45;;;17.40;99.90;;;16.53;93.71;101980.91;4170142;28;20044;-69
2021/06/12 06:23:45;;;;;;;2.30;2.00;;;17.40;99.90;;;16.47;94.91;101981.56;4170523;28;20370;-69
2021/06/12 06:25:46;;;;;;;2.35;2.00;;;17.40;99.90;;;16.67;95.35;101987.44;4167559;28;20033;-69
2021/06/12 06:27:47;;;;;;;2.60;2.22;;;17.50;99.90;;;16.89;94.46;101990.28;4169335;28;20021;-69
2021/06/12 06:29:47;;;;;;;3.47;2.60;;;17.60;99.90;;;16.67;93.54;101988.25;4169218;28;20057;-69
2021/06/12 06:31:48;;;;;;;2.45;2.03;;;17.60;99.90;;;16.62;94.96;101995.09;4170462;28;20528;-69
2021/06/12 06:33:49;;;;;;;2.45;2.00;;;17.60;99.90;;;16.85;94.51;101996.09;4169196;28;20024;-69
2021/06/12 06:35:52;;;;;;;2.40;1.90;;;17.60;99.90;;;17.05;94.23;101989.47;4170622;28;20600;-69
2021/06/12 06:37:52;;;;;;;2.17;1.95;;;17.70;99.90;;;17.01;91.97;101988.13;4200825;28;20582;-69
2021/06/12 06:39:53;;;;;;;2.00;1.75;;;17.80;99.90;;;17.19;93.20;101998.59;4167712;28;20112;-69
2021/06/12 06:41:54;;;;;;;2.80;1.98;;;17.90;99.90;;;17.18;91.54;101995.09;4169435;28;20022;-69
2021/06/12 06:43:55;;;;;;;2.10;1.90;;;18.00;99.90;;;17.10;90.79;101995.09;4170178;28;20036;-69
2021/06/12 06:45:56;;;;;;;2.65;1.95;;;18.00;99.90;;;17.09;92.04;101988.09;4167930;28;20388;-69
2021/06/12 06:47:57;;;;;;;2.92;2.70;;;18.10;99.90;;;16.99;91.56;101990.94;4169701;28;20055;-69
2021/06/12 06:49:58;;;;;;;2.10;1.67;;;18.10;99.90;;;16.88;93.14;101998.44;4170282;28;20033;-69
2021/06/12 06:51:59;;;;;;;2.15;1.73;;;18.00;99.90;;;16.62;92.85;101981.78;4170004;28;20025;-69
2021/06/12 06:54:00;;;;;;;2.47;1.90;;;18.00;99.90;;;16.58;94.09;102005.25;4170091;28;20076;-70
2021/06/12 06:56:02;;;;;;;2.33;1.60;;;17.90;99.90;;;16.82;94.18;102001.75;4170227;28;20167;-70
2021/06/12 06:58:04;;;;;;;2.00;1.63;;;17.90;99.90;;;16.99;91.04;101985.59;4170382;28;20083;-70
2021/06/12 07:00:06;;;;;;;2.38;1.45;;;18.00;99.90;;;16.65;93.84;102000.94;4169958;28;20053;-70
2021/06/12 07:02:08;;;;;;;1.75;1.50;;;18.10;99.90;;;16.85;94.30;102002.28;4169923;28;20024;-70
2021/06/12 07:04:08;;;;;;;1.40;1.30;;;18.10;99.90;;;17.05;92.50;101986.78;4170170;28;20048;-70
2021/06/12 07:06:09;;;;;;;1.48;1.10;;;18.30;99.90;;;17.23;89.83;101995.44;4170079;28;20021;-70
2021/06/12 07:08:10;;;;;;;2.05;1.30;;;18.50;99.90;;;17.09;91.11;101998.75;4168489;28;20396;-70
2021/06/12 07:10:12;;;;;;;2.15;1.95;;;18.50;99.90;;;17.47;90.50;101999.91;4168504;28;20030;-70
2021/06/12 07:12:13;;;;;;;1.65;1.30;;;18.60;99.90;;;16.85;92.41;101991.59;4168707;28;20150;-70
2021/06/12 07:14:14;;;;;;;1.48;1.27;;;18.60;99.90;;;16.75;92.61;101995.44;4168570;28;20405;-70
2021/06/12 07:16:15;;;;;;;1.92;1.60;;;18.60;99.90;;;16.83;93.43;101998.94;4169854;28;20033;-70
2021/06/12 07:18:16;;;;;;;1.33;1.20;;;18.50;99.90;;;17.00;92.56;101997.09;4168274;28;20029;-70
2021/06/12 07:20:17;;;;;;;2.00;1.42;;;18.60;99.90;;;17.33;91.20;101993.41;4168663;28;20065;-69
2021/06/12 07:22:18;;;;;;;1.48;1.10;;;18.70;99.90;;;17.48;90.07;102007.72;4168398;28;20033;-70
2021/06/12 07:24:19;;;;;;;1.42;1.30;;;18.80;99.90;;;17.28;90.85;102003.75;4169752;28;20164;-69
2021/06/12 07:26:20;;;;;;;1.85;1.38;;;18.80;99.90;;;17.34;90.68;102000.41;4169623;28;20021;-69
2021/06/12 07:28:21;;;;;;;1.50;1.40;;;18.90;99.90;;;17.78;89.46;102010.66;4168553;28;20488;-69
2021/06/12 07:30:22;;;;;;;2.65;0.95;;;19.10;99.90;;;17.72;88.68;101996.16;4169560;28;20029;-69
2021/06/12 07:32:23;;;;;;;1.50;1.15;;;19.10;99.90;;;17.37;88.62;101993.91;4151918;28;20030;-69
2021/06/12 07:34:24;;;;;;;1.27;1.02;;;19.10;99.90;;;17.55;87.85;102000.72;4168183;28;20101;-69
2021/06/12 07:36:27;;;;;;;1.20;0.90;;;19.00;99.90;;;17.72;87.63;101996.16;4156234;28;20507;-70
2021/06/12 07:38:29;;;;;;;1.30;1.20;;;18.90;99.90;;;17.70;87.08;101998.19;4169328;28;20049;-70
2021/06/12 07:40:30;;;;;;;1.75;1.65;;;18.90;99.90;;;17.35;89.21;102012.72;4168275;28;20515;-70
2021/06/12 07:42:31;;;;;;;2.35;1.00;;;18.90;99.90;;;17.78;89.05;102010.66;4168772;28;20052;-70
2021/06/12 07:44:32;;;;;;;1.17;1.08;;;18.90;99.90;;;18.00;88.00;102012.59;4151740;28;20045;-72
2021/06/12 07:46:34;;;;;;;2.83;1.20;;;19.10;99.90;;;17.88;87.51;102017.47;4169375;28;20088;-71
2021/06/12 07:48:35;;;;;;;1.25;1.10;;;19.20;99.90;;;17.58;88.41;102015.56;4200913;28;20124;-70
2021/06/12 07:50:37;;;;;;;1.13;1.00;;;19.20;99.90;;;17.72;88.47;102014.00;4169248;28;20033;-71
2021/06/12 07:52:38;;;;;;;1.00;0.90;;;19.20;99.90;;;17.74;87.62;101999.50;4169113;28;20037;-70
2021/06/12 07:54:39;;;;;;;1.00;0.77;;;19.30;99.90;;;17.79;88.34;102018.50;4168243;28;20032;-70
2021/06/12 07:56:40;;;;;;;1.98;1.38;;;19.20;99.90;;;18.12;86.00;102016.53;4169264;28;20025;-71
2021/06/12 07:58:41;;;;;;;1.20;0.80;;;19.40;99.90;;;18.26;84.09;102026.47;4167818;28;20028;-71
2021/06/12 08:00:42;;;;;;;0.93;0.80;;;19.60;99.90;;;18.28;84.77;102027.13;4168901;28;20040;-71
2021/06/12 08:02:43;;;;;;;0.75;0.65;;;19.60;99.90;;;18.65;84.50;102024.59;4169203;28;20626;-71
2021/06/12 08:04:45;;;;;;;0.93;0.70;;;19.90;99.90;;;18.93;83.01;102022.25;4167718;28;20065;-70
2021/06/12 08:06:46;;;;;;;0.98;0.80;;;20.10;99.90;;;19.04;82.75;102023.63;4168758;28;20022;-70
2021/06/12 08:08:46;;;;;;;0.90;0.70;;;20.30;99.90;;;19.06;81.11;102016.25;4169077;28;20057;-70
2021/06/12 08:10:48;;;;;;;1.02;0.88;;;20.50;99.90;;;19.13;82.39;102026.06;4167857;28;20044;-70
2021/06/12 08:12:49;;;;;;;0.82;0.68;;;20.70;99.90;;;18.83;82.51;102024.31;4168937;28;20036;-69
2021/06/12 08:14:51;;;;;;;1.02;0.90;;;20.80;99.90;;;18.85;81.90;102032.97;4168995;28;20025;-70
2021/06/12 08:16:52;;;;;;;0.70;0.60;;;20.90;99.90;;;19.11;83.43;102027.28;4168841;28;20037;-69
2021/06/12 08:18:53;;;;;;;0.85;0.73;;;20.80;99.90;;;18.96;82.97;102037.94;4168917;28;20037;-69
2021/06/12 08:20:53;;;;;;;0.80;0.68;;;21.00;99.90;;;19.58;81.50;102029.69;4166820;28;20080;-71
2021/06/12 08:22:54;;;;;;;1.02;0.80;;;21.20;99.90;;;19.81;81.24;102025.91;4172198;28;20499;-69
2021/06/12 08:24:55;;;;;;;1.65;0.90;;;21.40;99.90;;;19.57;80.01;102023.50;4164546;28;20029;-69
2021/06/12 08:26:57;;;;;;;1.23;0.70;;;21.60;99.90;;;19.26;81.83;102034.28;4167997;28;20148;-69
2021/06/12 08:28:58;;;;;;;0.90;0.70;;;21.50;99.90;;;19.27;80.90;102021.75;4168810;28;20028;-69
2021/06/12 08:30:59;;;;;;;1.05;0.90;;;21.40;99.90;;;19.61;80.19;102022.13;4168541;28;20021;-69